Time;durP1;ratioP1;P1;durP2;ratioP2;P2;SDS_P1;SDS_P2;PMS_P1;PMS_P2;Temp;Humidity;BMP_temperature;BMP_pressure;BME280_temperature;BME280_humidity;BME280_pressure;Samples;Min_cycle;Max_cycle;Signal;HPM_P1;HPM_P2
2023/08/21 00:00:00;;;;;;;10.30;8.73;;;21.70;99.90;;;;;;4989164;28;20551;-68
2023/08/21 00:02:27;;;;;;;10.07;8.73;;;21.70;99.90;;;;;;4982914;28;20179;-69
2023/08/21 00:04:53;;;;;;;9.20;8.20;;;21.60;99.90;;;;;;4989662;28;20196;-68
2023/08/21 00:07:19;;;;;;;10.43;9.20;;;21.60;99.90;;;;;;4983308;28;20782;-69
2023/08/21 00:09:45;;;;;;;9.13;8.33;;;21.70;99.90;;;;;;4989192;28;20434;-69
2023/08/21 00:12:10;;;;;;;9.57;8.67;;;21.60;99.90;;;;;;4984878;28;20183;-69
2023/08/21 00:14:36;;;;;;;11.70;9.77;;;21.60;99.90;;;;;;4982723;28;20206;-69
2023/08/21 00:17:06;;;;;;;9.93;8.53;;;21.60;99.90;;;;;;4988923;28;20187;-68
2023/08/21 00:19:32;;;;;;;10.03;8.60;;;21.50;99.90;;;;;;4982853;28;20294;-68
2023/08/21 00:21:59;;;;;;;10.70;9.63;;;21.50;99.90;;;;;;4990113;28;20428;-69
2023/08/21 00:24:25;;;;;;;10.17;9.17;;;21.50;99.90;;;;;;4982519;28;20951;-67
2023/08/21 00:26:50;;;;;;;9.60;7.90;;;21.50;99.90;;;;;;4989697;28;20424;-68
2023/08/21 00:29:16;;;;;;;11.57;9.73;;;21.40;99.90;;;;;;4983094;28;20195;-69
2023/08/21 00:31:41;;;;;;;10.63;9.37;;;21.40;99.90;;;;;;4982381;28;20279;-68
2023/08/21 00:34:07;;;;;;;8.80;8.00;;;21.40;99.90;;;;;;4989053;28;20219;-69
2023/08/21 00:36:32;;;;;;;8.37;7.50;;;21.40;99.90;;;;;;4982620;28;20239;-68
2023/08/21 00:38:58;;;;;;;9.87;8.87;;;21.30;99.90;;;;;;4989342;28;20205;-68
2023/08/21 00:41:24;;;;;;;10.03;9.03;;;21.40;99.90;;;;;;4982373;28;20180;-68
2023/08/21 00:43:49;;;;;;;8.60;7.80;;;21.30;99.90;;;;;;4985858;28;20234;-68
2023/08/21 00:46:16;;;;;;;10.83;7.43;;;21.30;99.90;;;;;;4984307;28;20582;-68
2023/08/21 00:48:43;;;;;;;12.27;8.30;;;21.30;99.90;;;;;;4986466;28;20233;-68
2023/08/21 00:51:09;;;;;;;12.07;8.43;;;21.30;99.90;;;;;;4983755;28;20940;-67
2023/08/21 00:53:34;;;;;;;10.27;8.83;;;21.30;99.90;;;;;;4988560;28;20434;-68
2023/08/21 00:56:00;;;;;;;10.20;9.20;;;21.30;99.90;;;;;;4982623;28;20791;-68
2023/08/21 00:58:26;;;;;;;11.87;9.30;;;21.20;99.90;;;;;;4985212;28;20199;-68
2023/08/21 01:00:52;;;;;;;9.30;8.30;;;21.20;99.90;;;;;;4985367;28;20192;-69
2023/08/21 01:03:18;;;;;;;10.87;9.90;;;21.20;99.90;;;;;;4987496;28;20189;-69
2023/08/21 01:05:44;;;;;;;10.73;9.73;;;21.20;99.90;;;;;;4990313;28;20817;-69
2023/08/21 01:08:28;;;;;;;12.63;9.30;;;21.20;99.90;;;;;;4987197;28;20219;-68
2023/08/21 01:11:05;;;;;;;13.87;9.17;;;21.20;99.90;;;;;;4985826;28;20934;-68
2023/08/21 01:13:46;;;;;;;10.77;9.50;;;21.20;99.90;;;;;;4974366;28;20544;-67
2023/08/21 01:16:14;;;;;;;11.90;9.40;;;21.10;99.90;;;;;;4983212;28;20430;-68
2023/08/21 01:18:40;;;;;;;11.00;9.90;;;21.10;99.90;;;;;;4994270;23;20479;-67
2023/08/21 01:21:06;;;;;;;11.23;10.13;;;21.10;99.90;;;;;;4985237;28;20413;-67
2023/08/21 01:23:35;;;;;;;15.93;10.23;;;21.10;99.90;;;;;;4981310;28;20406;-70
2023/08/21 01:26:01;;;;;;;10.07;9.07;;;21.10;99.90;;;;;;4988689;28;20179;-67
2023/08/21 01:28:28;;;;;;;9.80;8.90;;;21.10;99.90;;;;;;4984601;28;20786;-67
2023/08/21 01:31:07;;;;;;;11.93;10.10;;;21.10;99.90;;;;;;4984953;28;20171;-68
2023/08/21 01:33:37;;;;;;;12.70;9.87;;;21.10;99.90;;;;;;4984711;28;20495;-68
2023/08/21 01:36:04;;;;;;;13.10;10.47;;;21.10;99.90;;;;;;4983551;28;20411;-68
2023/08/21 01:38:35;;;;;;;11.50;10.30;;;21.10;99.90;;;;;;4983665;28;20487;-68
2023/08/21 01:41:01;;;;;;;9.83;8.87;;;21.10;99.90;;;;;;4984445;28;20776;-68
2023/08/21 01:43:27;;;;;;;13.00;9.77;;;21.10;99.90;;;;;;4984179;28;20922;-68
2023/08/21 01:45:53;;;;;;;9.17;8.30;;;21.10;99.90;;;;;;4978890;28;20418;-67
2023/08/21 01:48:18;;;;;;;12.70;9.97;;;21.10;99.90;;;;;;4985836;28;20306;-69
2023/08/21 01:50:44;;;;;;;10.73;9.63;;;21.10;99.90;;;;;;4978177;28;20308;-68
2023/08/21 01:53:09;;;;;;;13.20;10.50;;;21.20;99.90;;;;;;4984115;28;20186;-67
2023/08/21 01:55:35;;;;;;;9.70;8.80;;;21.20;99.90;;;;;;4984835;28;20184;-68
2023/08/21 01:58:01;;;;;;;10.73;9.63;;;21.30;99.90;;;;;;4983304;28;20285;-69
2023/08/21 02:00:26;;;;;;;11.27;8.70;;;21.40;99.90;;;;;;4984391;28;20196;-69
2023/08/21 02:02:52;;;;;;;10.07;9.07;;;21.30;99.90;;;;;;4984864;28;20264;-66
2023/08/21 02:05:17;;;;;;;11.83;8.73;;;21.40;99.90;;;;;;4984883;28;20179;-68
2023/08/21 02:07:43;;;;;;;11.00;9.87;;;21.40;99.90;;;;;;4985645;28;20282;-67
2023/08/21 02:10:09;;;;;;;9.07;8.17;;;21.40;99.90;;;;;;4982491;28;20208;-68
2023/08/21 02:12:34;;;;;;;10.00;8.33;;;21.40;99.90;;;;;;4972786;28;20180;-68
2023/08/21 02:15:00;;;;;;;8.13;7.27;;;21.40;99.90;;;;;;4987737;28;20467;-68
2023/08/21 02:17:30;;;;;;;10.13;8.53;;;21.40;99.90;;;;;;4976793;28;20215;-69
2023/08/21 02:19:55;;;;;;;11.10;8.67;;;21.40;99.90;;;;;;4981856;28;20207;-68
2023/08/21 02:22:21;;;;;;;10.93;7.60;;;21.40;99.90;;;;;;4986066;28;20514;-68
2023/08/21 02:24:46;;;;;;;8.63;7.83;;;21.40;99.90;;;;;;4984091;28;20176;-68
2023/08/21 02:27:12;;;;;;;9.77;8.00;;;21.40;99.90;;;;;;4981967;28;20192;-68
2023/08/21 02:29:38;;;;;;;8.10;7.27;;;21.40;99.90;;;;;;4984115;28;20190;-69
2023/08/21 02:32:03;;;;;;;8.67;7.40;;;21.40;99.90;;;;;;4983326;28;20287;-68
2023/08/21 02:34:29;;;;;;;8.77;7.60;;;21.40;99.90;;;;;;4984348;28;20712;-68
2023/08/21 02:36:54;;;;;;;11.67;8.97;;;21.40;99.90;;;;;;4984510;28;20224;-67
2023/08/21 02:39:20;;;;;;;8.70;7.83;;;21.40;99.90;;;;;;4980768;28;20211;-68
2023/08/21 02:41:46;;;;;;;9.73;7.67;;;21.40;99.90;;;;;;4984994;28;20175;-68
2023/08/21 02:44:11;;;;;;;8.33;7.33;;;21.40;99.90;;;;;;4981861;28;20495;-70
2023/08/21 02:46:37;;;;;;;8.63;7.73;;;21.40;99.90;;;;;;4984542;28;20263;-68
2023/08/21 02:49:02;;;;;;;9.43;6.47;;;21.40;99.90;;;;;;4983118;28;20212;-68
2023/08/21 02:51:28;;;;;;;8.60;6.80;;;21.40;99.90;;;;;;4984543;28;20176;-68
2023/08/21 02:53:53;;;;;;;6.70;6.00;;;21.40;99.90;;;;;;4984125;28;20338;-67
2023/08/21 02:56:19;;;;;;;8.53;7.70;;;21.40;99.90;;;;;;4981234;28;20185;-70
2023/08/21 02:58:45;;;;;;;7.93;7.23;;;21.40;99.90;;;;;;4984801;28;20207;-69
2023/08/21 03:01:11;;;;;;;8.93;7.73;;;21.40;99.90;;;;;;4982249;28;20211;-67
2023/08/21 03:03:37;;;;;;;8.83;7.40;;;21.40;99.90;;;;;;4985045;28;20215;-70
2023/08/21 03:06:02;;;;;;;8.00;7.20;;;21.40;99.90;;;;;;4982974;28;20896;-68
2023/08/21 03:08:28;;;;;;;8.03;7.33;;;21.40;99.90;;;;;;4986119;28;20207;-67
2023/08/21 03:10:54;;;;;;;8.40;6.53;;;21.40;99.90;;;;;;4987515;28;20217;-68
2023/08/21 03:13:19;;;;;;;6.80;6.03;;;21.40;99.90;;;;;;4984310;28;20184;-68
2023/08/21 03:15:45;;;;;;;9.20;7.93;;;21.40;99.90;;;;;;4988695;28;20181;-67
2023/08/21 03:18:10;;;;;;;7.63;6.93;;;21.50;99.90;;;;;;4985144;28;20238;-68
2023/08/21 03:20:36;;;;;;;8.80;8.00;;;21.50;99.90;;;;;;4982910;28;20608;-69
2023/08/21 03:23:02;;;;;;;9.97;7.60;;;21.40;99.90;;;;;;4989716;28;20215;-68
2023/08/21 03:25:28;;;;;;;8.40;6.77;;;21.50;99.90;;;;;;4983829;28;20702;-68
2023/08/21 03:27:54;;;;;;;8.30;6.43;;;21.60;99.90;;;;;;4989508;28;20211;-68
2023/08/21 03:30:19;;;;;;;9.00;8.10;;;21.60;99.90;;;;;;4983886;28;20415;-68
2023/08/21 03:32:45;;;;;;;7.47;6.77;;;21.60;99.90;;;;;;4989610;28;20658;-68
2023/08/21 03:35:10;;;;;;;6.87;6.27;;;21.50;99.90;;;;;;4985326;28;20180;-68
2023/08/21 03:37:36;;;;;;;8.33;6.60;;;21.50;99.90;;;;;;4983522;28;20691;-68
2023/08/21 03:40:03;;;;;;;9.63;7.57;;;21.50;99.90;;;;;;4989093;28;20243;-69
2023/08/21 03:42:29;;;;;;;7.70;6.80;;;21.60;99.90;;;;;;4983395;28;20176;-68
2023/08/21 03:44:54;;;;;;;8.17;7.33;;;21.50;99.90;;;;;;4989830;28;20788;-68
2023/08/21 03:47:20;;;;;;;6.77;5.83;;;21.60;99.90;;;;;;4983457;28;20339;-68
2023/08/21 03:49:48;;;;;;;9.20;6.80;;;21.50;99.90;;;;;;4989104;28;20183;-69
2023/08/21 03:52:14;;;;;;;9.80;7.20;;;21.50;99.90;;;;;;4984631;28;20271;-69
2023/08/21 03:54:39;;;;;;;8.60;6.67;;;21.40;99.90;;;;;;4983358;28;20477;-68
2023/08/21 03:57:05;;;;;;;7.93;7.23;;;21.40;99.90;;;;;;4988738;28;20423;-68
2023/08/21 03:59:31;;;;;;;8.87;7.07;;;21.40;99.90;;;;;;4981667;28;20212;-69
2023/08/21 04:01:56;;;;;;;9.60;7.13;;;21.40;99.90;;;;;;4989729;28;20191;-68
2023/08/21 04:04:22;;;;;;;8.40;7.60;;;21.40;99.90;;;;;;4983470;28;20735;-69
2023/08/21 04:06:48;;;;;;;7.93;7.13;;;21.40;99.90;;;;;;4989441;28;20180;-67
2023/08/21 04:09:13;;;;;;;7.80;7.00;;;21.40;99.90;;;;;;4984059;28;20695;-67
2023/08/21 04:11:39;;;;;;;7.43;6.50;;;21.30;99.90;;;;;;4982896;28;20648;-67
2023/08/21 04:14:04;;;;;;;7.77;6.80;;;21.40;99.90;;;;;;4988756;28;20687;-68
2023/08/21 04:16:30;;;;;;;7.70;6.97;;;21.40;99.90;;;;;;4982941;28;20189;-68
2023/08/21 04:18:57;;;;;;;7.67;6.47;;;21.40;99.90;;;;;;4988575;28;20217;-68
2023/08/21 04:21:22;;;;;;;7.40;6.70;;;21.40;99.90;;;;;;4973930;28;20420;-69
2023/08/21 04:23:48;;;;;;;7.47;6.50;;;21.40;99.90;;;;;;4984887;28;20421;-69
2023/08/21 04:26:14;;;;;;;7.27;6.60;;;21.40;99.90;;;;;;4985028;28;20190;-67
2023/08/21 04:28:39;;;;;;;6.20;5.57;;;21.50;99.90;;;;;;4986641;28;20263;-67
2023/08/21 04:31:06;;;;;;;7.30;6.60;;;21.50;99.90;;;;;;4983743;28;20181;-68
2023/08/21 04:33:33;;;;;;;9.23;6.30;;;21.50;99.90;;;;;;4988769;28;20634;-68
2023/08/21 04:35:59;;;;;;;6.90;5.73;;;21.50;99.90;;;;;;4982717;28;20473;-68
2023/08/21 04:38:24;;;;;;;6.70;6.10;;;21.50;99.90;;;;;;4985682;28;20466;-68
2023/08/21 04:40:50;;;;;;;7.97;6.30;;;21.60;99.90;;;;;;4984211;28;20415;-68
2023/08/21 04:43:16;;;;;;;6.60;5.90;;;21.60;99.90;;;;;;4984841;28;20657;-68
2023/08/21 04:45:50;;;;;;;9.57;6.93;;;21.60;99.90;;;;;;4986424;28;20180;-68
2023/08/21 04:48:16;;;;;;;8.00;6.90;;;21.60;99.90;;;;;;4984810;28;20444;-68
2023/08/21 04:50:41;;;;;;;7.30;6.43;;;21.60;99.90;;;;;;4987117;28;20417;-68
2023/08/21 04:53:07;;;;;;;10.20;6.23;;;21.70;99.90;;;;;;4983809;28;20238;-71
2023/08/21 04:55:32;;;;;;;7.00;6.30;;;21.70;99.90;;;;;;4985543;28;20273;-69
2023/08/21 04:57:58;;;;;;;9.33;7.60;;;21.70;99.90;;;;;;4983443;28;20224;-67
2023/08/21 05:00:24;;;;;;;8.37;6.87;;;21.80;99.90;;;;;;4985963;28;20165;-67
2023/08/21 05:02:50;;;;;;;7.47;6.63;;;21.80;99.90;;;;;;4985088;28;20268;-67
2023/08/21 05:05:15;;;;;;;10.10;8.50;;;21.80;99.90;;;;;;4984500;28;20604;-67
2023/08/21 05:07:41;;;;;;;7.60;6.90;;;21.90;99.90;;;;;;4976789;28;20228;-67
2023/08/21 05:10:07;;;;;;;9.53;8.00;;;21.90;99.90;;;;;;4967795;28;20990;-68
2023/08/21 05:12:33;;;;;;;9.90;7.70;;;21.90;99.90;;;;;;4979499;28;20188;-67
2023/08/21 05:14:58;;;;;;;20.47;18.03;;;22.00;99.90;;;;;;4978926;28;20486;-67
2023/08/21 05:17:25;;;;;;;14.30;12.10;;;22.00;99.90;;;;;;4985038;28;20231;-67
2023/08/21 05:19:50;;;;;;;8.40;7.70;;;22.10;99.90;;;;;;4983981;28;20683;-67
2023/08/21 05:22:16;;;;;;;9.50;8.30;;;22.10;99.90;;;;;;4981689;28;20413;-67
2023/08/21 05:24:41;;;;;;;11.10;7.73;;;21.90;99.90;;;;;;4980193;28;20634;-67
2023/08/21 05:27:07;;;;;;;8.80;7.50;;;22.00;99.90;;;;;;4978768;28;20543;-67
2023/08/21 05:29:34;;;;;;;8.20;7.40;;;22.00;99.90;;;;;;4984681;28;20184;-67
2023/08/21 05:32:00;;;;;;;10.00;7.70;;;22.10;99.90;;;;;;4983828;28;20235;-67
2023/08/21 05:34:25;;;;;;;11.90;9.07;;;22.20;99.90;;;;;;4984791;28;20906;-68
2023/08/21 05:36:54;;;;;;;10.00;7.27;;;22.40;99.90;;;;;;4984790;28;20206;-68
2023/08/21 05:39:20;;;;;;;8.77;7.87;;;22.60;99.90;;;;;;4984720;28;20617;-68
2023/08/21 05:41:45;;;;;;;11.60;7.93;;;22.70;99.90;;;;;;4982255;28;20426;-68
2023/08/21 05:44:11;;;;;;;8.13;7.33;;;22.80;99.90;;;;;;4982689;28;20420;-67
2023/08/21 05:46:37;;;;;;;7.10;6.50;;;23.20;99.90;;;;;;4984744;28;20620;-67
2023/08/21 05:49:03;;;;;;;8.33;6.97;;;23.30;99.90;;;;;;4983295;28;20739;-67
2023/08/21 05:51:30;;;;;;;9.43;5.87;;;23.40;99.90;;;;;;4984506;28;20414;-67
2023/08/21 05:53:56;;;;;;;7.07;6.47;;;23.30;99.90;;;;;;4984947;28;20426;-69
2023/08/21 05:56:22;;;;;;;9.00;7.60;;;23.30;99.90;;;;;;4982036;28;20408;-67
2023/08/21 05:58:47;;;;;;;19.00;17.00;;;23.40;99.90;;;;;;4984065;28;20208;-67
2023/08/21 06:01:14;;;;;;;9.40;8.13;;;23.60;99.90;;;;;;4982760;28;20664;-67
2023/08/21 06:03:40;;;;;;;9.33;8.40;;;23.40;99.90;;;;;;4984348;28;20441;-67
2023/08/21 06:06:05;;;;;;;10.10;8.97;;;23.40;99.90;;;;;;4983156;28;20190;-67
2023/08/21 06:08:31;;;;;;;8.73;7.93;;;23.40;99.90;;;;;;4988866;28;20199;-67
2023/08/21 06:10:57;;;;;;;11.70;7.80;;;23.40;99.90;;;;;;4984261;28;20275;-67
2023/08/21 06:13:23;;;;;;;8.07;7.37;;;23.50;99.90;;;;;;4981557;28;20257;-67
2023/08/21 06:15:48;;;;;;;11.00;8.30;;;23.80;99.90;;;;;;4977436;28;20191;-67
2023/08/21 06:18:17;;;;;;;8.73;7.93;;;23.90;99.90;;;;;;4975158;28;20222;-67
2023/08/21 06:20:46;;;;;;;8.50;7.20;;;23.80;99.90;;;;;;4983795;28;20207;-67
2023/08/21 06:23:12;;;;;;;7.97;6.60;;;23.80;99.90;;;;;;4982344;28;20419;-67
2023/08/21 06:25:38;;;;;;;9.37;6.30;;;23.90;99.90;;;;;;4980733;28;20429;-68
2023/08/21 06:28:04;;;;;;;7.23;6.03;;;24.20;99.90;;;;;;4987355;28;20690;-68
2023/08/21 06:30:30;;;;;;;7.97;7.17;;;24.30;99.90;;;;;;4980982;28;20431;-67
2023/08/21 06:32:56;;;;;;;7.27;6.57;;;24.30;99.90;;;;;;4987502;28;20416;-68
2023/08/21 06:35:21;;;;;;;7.00;6.33;;;24.50;99.90;;;;;;4980551;28;20177;-68
2023/08/21 06:37:47;;;;;;;6.13;5.63;;;24.90;99.90;;;;;;4987008;28;20440;-68
2023/08/21 06:40:12;;;;;;;8.10;7.30;;;25.10;99.90;;;;;;4981852;28;20240;-69
2023/08/21 06:42:38;;;;;;;7.73;6.83;;;24.90;99.90;;;;;;4981222;28;20192;-69
2023/08/21 06:45:07;;;;;;;8.13;5.63;;;25.50;99.90;;;;;;4991275;28;20208;-68
2023/08/21 06:47:33;;;;;;;8.87;7.40;;;26.50;99.90;;;;;;4984479;28;20197;-71
2023/08/21 06:50:00;;;;;;;7.17;6.57;;;26.90;99.90;;;;;;4991557;28;20523;-70
2023/08/21 06:52:26;;;;;;;12.37;11.17;;;27.20;99.90;;;;;;4984550;28;20181;-71
2023/08/21 06:54:52;;;;;;;7.30;6.60;;;27.60;99.90;;;;;;4984805;28;20797;-70
2023/08/21 06:57:17;;;;;;;7.27;6.57;;;28.30;99.90;;;;;;4990216;28;20455;-70
2023/08/21 06:59:43;;;;;;;6.87;6.20;;;28.00;99.90;;;;;;4984102;28;20557;-70
2023/08/21 07:02:08;;;;;;;9.50;6.13;;;28.40;99.90;;;;;;4991043;28;20248;-70
2023/08/21 07:04:34;;;;;;;6.13;5.53;;;27.50;99.90;;;;;;4984856;28;20205;-70
2023/08/21 07:07:00;;;;;;;5.53;5.13;;;26.90;99.90;;;;;;4991772;28;20213;-70
2023/08/21 07:09:25;;;;;;;6.07;5.57;;;27.10;99.90;;;;;;4984144;28;20182;-71
2023/08/21 07:11:51;;;;;;;6.60;6.00;;;27.90;99.90;;;;;;4984522;28;20576;-70
2023/08/21 07:14:17;;;;;;;9.27;8.10;;;28.30;99.90;;;;;;4989160;28;20276;-71
2023/08/21 07:16:43;;;;;;;5.63;5.13;;;29.10;99.90;;;;;;4983373;28;20188;-71
2023/08/21 07:19:08;;;;;;;7.20;5.00;;;29.20;99.90;;;;;;4990484;28;20553;-71
2023/08/21 07:21:36;;;;;;;5.30;4.80;;;29.60;99.90;;;;;;4984030;28;20419;-69
2023/08/21 07:24:02;;;;;;;9.47;8.67;;;28.00;99.90;;;;;;4984817;28;20511;-71
2023/08/21 07:26:29;;;;;;;6.30;4.53;;;30.40;99.90;;;;;;4987472;28;20420;-71
2023/08/21 07:28:54;;;;;;;8.63;4.40;;;30.30;99.90;;;;;;4986054;28;20535;-71
2023/08/21 07:31:20;;;;;;;5.30;4.80;;;29.50;99.90;;;;;;4987088;28;20510;-71
2023/08/21 07:33:46;;;;;;;4.50;3.97;;;29.40;99.90;;;;;;4988043;28;20216;-71
2023/08/21 07:36:16;;;;;;;5.73;5.23;;;29.60;99.90;;;;;;4985613;28;20177;-71
2023/08/21 07:38:45;;;;;;;5.23;4.53;;;30.10;99.90;;;;;;4986705;28;20582;-71
2023/08/21 07:41:12;;;;;;;4.87;4.17;;;30.40;99.90;;;;;;4985488;28;20425;-71
2023/08/21 07:43:42;;;;;;;5.67;5.17;;;30.10;99.90;;;;;;4986952;28;20412;-72
2023/08/21 07:46:11;;;;;;;7.13;6.43;;;30.80;99.90;;;;;;4984997;28;20843;-71
2023/08/21 07:48:36;;;;;;;5.27;4.43;;;31.40;99.90;;;;;;4986596;28;20443;-70
2023/08/21 07:51:02;;;;;;;7.27;5.43;;;31.60;99.90;;;;;;4985393;28;20421;-71
2023/08/21 07:53:29;;;;;;;4.53;3.90;;;31.00;99.90;;;;;;4979199;28;20184;-70
2023/08/21 07:55:55;;;;;;;5.80;4.30;;;30.50;99.90;;;;;;4983958;28;20180;-72
2023/08/21 07:58:21;;;;;;;4.93;3.93;;;31.00;99.90;;;;;;4986261;28;21179;-70
2023/08/21 08:00:48;;;;;;;3.50;3.20;;;31.20;99.90;;;;;;4986685;28;20181;-71
2023/08/21 08:03:14;;;;;;;7.20;6.43;;;31.90;99.90;;;;;;4984356;28;20177;-71
2023/08/21 08:05:41;;;;;;;7.20;5.73;;;31.60;99.90;;;;;;4986619;28;20412;-71
2023/08/21 08:08:07;;;;;;;3.30;3.00;;;31.50;99.90;;;;;;4985274;28;20429;-70
2023/08/21 08:10:32;;;;;;;6.00;3.20;;;31.70;99.90;;;;;;4986421;28;20415;-70
2023/08/21 08:12:58;;;;;;;5.87;5.27;;;30.80;99.90;;;;;;4983818;28;20181;-70
2023/08/21 08:15:24;;;;;;;4.70;4.20;;;30.40;99.90;;;;;;4986420;28;20204;-70
2023/08/21 08:17:53;;;;;;;4.53;3.47;;;28.50;99.90;;;;;;4985721;28;20649;-70
2023/08/21 08:20:19;;;;;;;4.60;3.33;;;28.70;99.90;;;;;;4985641;28;20300;-69
2023/08/21 08:22:45;;;;;;;8.03;5.97;;;29.60;99.90;;;;;;4986509;28;20408;-70
2023/08/21 08:25:11;;;;;;;3.27;2.97;;;29.20;99.90;;;;;;4984456;28;20416;-70
2023/08/21 08:27:36;;;;;;;3.20;2.90;;;28.40;99.90;;;;;;4986385;28;20275;-71
2023/08/21 08:30:03;;;;;;;3.70;3.20;;;27.90;99.90;;;;;;4985395;28;20647;-70
2023/08/21 08:32:29;;;;;;;3.23;2.97;;;28.30;99.90;;;;;;4986076;28;20180;-70
2023/08/21 08:34:54;;;;;;;3.30;3.00;;;28.30;99.90;;;;;;4985958;28;20922;-70
2023/08/21 08:37:20;;;;;;;3.93;2.80;;;28.30;99.90;;;;;;4982711;28;20620;-70
2023/08/21 08:39:47;;;;;;;3.30;3.00;;;27.40;99.90;;;;;;4986530;28;20204;-70
2023/08/21 08:42:14;;;;;;;4.97;3.13;;;28.20;99.90;;;;;;4982483;28;20210;-70
2023/08/21 08:44:41;;;;;;;2.80;2.00;;;28.70;99.90;;;;;;4986481;28;20408;-71
2023/08/21 08:47:07;;;;;;;2.63;1.83;;;29.80;99.90;;;;;;4984680;28;20435;-70
2023/08/21 08:49:33;;;;;;;2.67;1.67;;;30.60;99.90;;;;;;4986045;28;20420;-70
2023/08/21 08:52:00;;;;;;;4.50;2.27;;;29.30;99.90;;;;;;4985357;28;20427;-70
2023/08/21 08:54:27;;;;;;;2.63;1.40;;;30.40;99.90;;;;;;4982033;28;20484;-70
2023/08/21 08:56:53;;;;;;;1.93;1.40;;;31.20;98.20;;;;;;4987263;28;20458;-71
2023/08/21 08:59:18;;;;;;;2.13;1.33;;;30.60;96.80;;;;;;4982565;28;20568;-71
2023/08/21 09:01:44;;;;;;;2.27;1.50;;;31.00;95.30;;;;;;4986981;28;20989;-70
2023/08/21 09:04:10;;;;;;;3.50;1.57;;;31.40;93.70;;;;;;4983647;28;20551;-71
2023/08/21 09:06:36;;;;;;;2.33;1.37;;;31.00;92.60;;;;;;4985897;23;20225;-73
2023/08/21 09:09:02;;;;;;;2.90;2.23;;;30.30;93.00;;;;;;5005573;28;20417;-72
2023/08/21 09:11:28;;;;;;;1.60;1.17;;;30.10;94.00;;;;;;4977147;28;20408;-72
2023/08/21 09:13:55;;;;;;;3.83;3.30;;;30.10;93.50;;;;;;4983420;28;20268;-73
2023/08/21 09:16:21;;;;;;;6.50;1.80;;;30.60;92.60;;;;;;4980880;28;20193;-72
2023/08/21 09:18:57;;;;;;;2.67;1.30;;;30.40;91.50;;;;;;4979839;28;20764;-73
2023/08/21 09:21:27;;;;;;;3.20;1.40;;;30.40;91.50;;;;;;4987609;28;20806;-73
2023/08/21 09:24:02;;;;;;;3.03;1.67;;;30.90;92.40;;;;;;4980504;28;20559;-73
2023/08/21 09:26:31;;;;;;;2.33;1.33;;;30.70;92.50;;;;;;4979138;28;20914;-73
2023/08/21 09:28:58;;;;;;;4.23;3.20;;;30.50;93.50;;;;;;4981276;28;20877;-73
2023/08/21 09:31:30;;;;;;;4.33;1.23;;;30.10;94.10;;;;;;4965705;28;20737;-73
2023/08/21 09:34:01;;;;;;;1.80;1.27;;;30.20;93.50;;;;;;4980216;28;20408;-73
2023/08/21 09:36:27;;;;;;;2.20;1.53;;;30.10;93.60;;;;;;4970132;28;20440;-73
2023/08/21 09:38:53;;;;;;;1.70;1.40;;;29.60;94.00;;;;;;4983294;28;20532;-73
2023/08/21 09:41:23;;;;;;;2.90;1.67;;;30.00;94.50;;;;;;4983318;28;20442;-73
2023/08/21 09:43:49;;;;;;;2.27;1.27;;;30.30;94.70;;;;;;4983596;28;20169;-72
2023/08/21 09:46:16;;;;;;;2.67;1.33;;;30.80;93.30;;;;;;4989431;28;20412;-73
2023/08/21 09:48:44;;;;;;;3.30;2.47;;;30.80;93.40;;;;;;4985993;28;20455;-72
2023/08/21 09:51:10;;;;;;;2.20;1.97;;;31.40;93.80;;;;;;4982690;28;20423;-73
2023/08/21 09:53:35;;;;;;;13.07;8.73;;;31.70;93.40;;;;;;4983198;28;20438;-72
2023/08/21 09:56:03;;;;;;;8.93;4.83;;;31.80;93.10;;;;;;4983204;28;20894;-73
2023/08/21 09:58:28;;;;;;;2.07;1.53;;;31.30;93.30;;;;;;4982917;28;20248;-73
2023/08/21 10:00:57;;;;;;;6.70;2.50;;;29.70;93.40;;;;;;4981705;28;20503;-73
2023/08/21 10:03:24;;;;;;;2.67;1.33;;;29.40;95.20;;;;;;4983131;28;20176;-72
2023/08/21 10:05:50;;;;;;;5.30;2.60;;;29.00;96.20;;;;;;4983538;28;20462;-73
2023/08/21 10:08:24;;;;;;;1.80;1.63;;;29.40;96.30;;;;;;4981905;28;20456;-72
2023/08/21 10:10:50;;;;;;;5.23;4.13;;;28.40;96.10;;;;;;4982932;28;20419;-73
2023/08/21 10:13:16;;;;;;;2.33;1.40;;;28.30;97.40;;;;;;4982732;28;20413;-73
2023/08/21 10:15:42;;;;;;;5.33;1.70;;;29.00;97.00;;;;;;4982907;28;20161;-71
2023/08/21 10:18:21;;;;;;;4.27;3.23;;;28.40;97.10;;;;;;4981345;28;20189;-72
2023/08/21 10:20:47;;;;;;;3.60;2.27;;;29.00;96.90;;;;;;4983195;28;20408;-72
2023/08/21 10:23:30;;;;;;;2.83;1.63;;;29.80;95.90;;;;;;4980941;28;20551;-72
2023/08/21 10:26:00;;;;;;;3.07;1.50;;;29.00;96.90;;;;;;4985911;28;20440;-73
2023/08/21 10:29:01;;;;;;;3.40;1.80;;;28.40;98.30;;;;;;4976770;28;20416;-72
2023/08/21 10:31:29;;;;;;;3.67;2.57;;;28.40;98.70;;;;;;4975084;28;20508;-73
2023/08/21 10:33:55;;;;;;;3.70;1.53;;;29.20;97.30;;;;;;4983079;28;20409;-72
2023/08/21 10:36:43;;;;;;;3.70;1.60;;;28.80;97.50;;;;;;4990142;28;20437;-72
2023/08/21 10:39:20;;;;;;;2.40;1.60;;;28.20;96.60;;;;;;4981879;28;20440;-73
2023/08/21 10:41:58;;;;;;;4.10;1.67;;;27.80;96.70;;;;;;4985881;28;20812;-73
2023/08/21 10:44:41;;;;;;;1.97;1.13;;;28.40;95.70;;;;;;4983696;28;20877;-72
2023/08/21 10:47:16;;;;;;;2.10;1.53;;;28.30;95.70;;;;;;4981666;28;20427;-73
2023/08/21 10:49:46;;;;;;;3.77;1.53;;;28.60;95.90;;;;;;4983386;28;20482;-73
2023/08/21 10:52:12;;;;;;;4.30;1.60;;;28.10;95.60;;;;;;4983482;28;20454;-72
2023/08/21 10:54:46;;;;;;;2.30;1.57;;;28.10;96.70;;;;;;4983842;28;20420;-73
2023/08/21 10:57:11;;;;;;;4.27;1.37;;;28.50;96.50;;;;;;4980621;28;20327;-72
2023/08/21 10:59:37;;;;;;;2.47;1.60;;;28.60;96.10;;;;;;4981424;28;20452;-72
2023/08/21 11:02:03;;;;;;;3.50;1.47;;;28.80;96.80;;;;;;4981691;28;20175;-72
2023/08/21 11:04:28;;;;;;;4.07;1.67;;;29.00;96.80;;;;;;4981727;28;20281;-72
2023/08/21 11:06:56;;;;;;;2.33;1.17;;;28.80;96.20;;;;;;4974608;28;20719;-74
2023/08/21 11:09:22;;;;;;;8.43;6.60;;;28.00;96.40;;;;;;4972131;28;20666;-72
2023/08/21 11:11:47;;;;;;;6.10;5.30;;;27.80;98.20;;;;;;4982344;28;20495;-72
2023/08/21 11:14:13;;;;;;;13.50;10.93;;;28.00;98.30;;;;;;4980324;28;20659;-73
2023/08/21 11:16:39;;;;;;;7.67;2.53;;;28.10;97.70;;;;;;4978662;28;20546;-72
2023/08/21 11:19:07;;;;;;;2.90;2.40;;;28.10;97.00;;;;;;4986013;28;20460;-72
2023/08/21 11:21:33;;;;;;;15.90;10.70;;;28.20;96.00;;;;;;4978822;28;20174;-72
2023/08/21 11:23:58;;;;;;;6.30;4.93;;;28.50;96.50;;;;;;4982111;28;20691;-72
2023/08/21 11:26:25;;;;;;;3.20;1.37;;;28.40;96.40;;;;;;4983974;28;20714;-72
2023/08/21 11:28:51;;;;;;;2.53;2.23;;;28.60;96.30;;;;;;4979526;28;20550;-72
2023/08/21 11:31:17;;;;;;;3.17;2.10;;;28.50;96.60;;;;;;4988328;28;20422;-72
2023/08/21 11:33:50;;;;;;;2.63;2.10;;;28.40;96.50;;;;;;4982268;28;20565;-73
2023/08/21 11:36:15;;;;;;;2.20;1.50;;;28.20;96.70;;;;;;4983746;28;20538;-72
2023/08/21 11:38:41;;;;;;;1.20;0.90;;;28.10;96.10;;;;;;4984618;28;20943;-72
2023/08/21 11:41:07;;;;;;;3.87;2.97;;;27.70;96.40;;;;;;4983095;28;20534;-72
2023/08/21 11:43:40;;;;;;;2.27;1.30;;;28.00;97.80;;;;;;4986555;28;20268;-72
2023/08/21 11:46:08;;;;;;;2.63;1.60;;;28.50;96.60;;;;;;4982727;28;20421;-72
2023/08/21 11:48:35;;;;;;;6.00;5.30;;;29.10;96.70;;;;;;4987259;28;20574;-72
2023/08/21 11:51:01;;;;;;;8.37;2.67;;;29.10;96.60;;;;;;4982242;28;20415;-73
2023/08/21 11:53:35;;;;;;;4.30;1.60;;;29.00;96.20;;;;;;4988915;28;20488;-71
2023/08/21 11:56:02;;;;;;;2.80;1.20;;;29.20;95.10;;;;;;4981482;28;20177;-72
2023/08/21 11:58:28;;;;;;;1.30;1.03;;;28.90;95.60;;;;;;4984368;28;20503;-72
2023/08/21 12:00:54;;;;;;;1.67;1.53;;;28.90;94.80;;;;;;4983196;28;20795;-71
2023/08/21 12:03:20;;;;;;;2.80;1.33;;;28.30;96.40;;;;;;4984130;28;20220;-74
2023/08/21 12:05:46;;;;;;;3.27;2.33;;;28.00;96.90;;;;;;4985122;28;20863;-72
2023/08/21 12:08:11;;;;;;;1.50;1.30;;;28.20;97.20;;;;;;4981330;28;20229;-73
2023/08/21 12:10:37;;;;;;;3.17;1.93;;;28.40;96.60;;;;;;4987577;28;20420;-71
2023/08/21 12:13:03;;;;;;;5.17;2.63;;;28.30;96.50;;;;;;4984851;28;20176;-70
2023/08/21 12:15:28;;;;;;;3.10;2.10;;;28.50;97.40;;;;;;4984884;28;20611;-70
2023/08/21 12:17:54;;;;;;;2.17;1.40;;;28.20;97.40;;;;;;4984765;28;20207;-70
2023/08/21 12:20:20;;;;;;;2.27;1.80;;;28.30;97.50;;;;;;4984516;28;20204;-70
2023/08/21 12:22:45;;;;;;;3.57;2.23;;;28.90;97.20;;;;;;4984655;28;20267;-70
2023/08/21 12:25:13;;;;;;;2.43;1.50;;;28.40;98.00;;;;;;4982387;28;20413;-70
2023/08/21 12:27:38;;;;;;;12.03;9.80;;;28.10;97.10;;;;;;4985054;28;20718;-70
2023/08/21 12:30:05;;;;;;;3.07;2.30;;;27.90;98.10;;;;;;4983095;28;20490;-70
2023/08/21 12:32:31;;;;;;;10.83;9.37;;;27.60;98.10;;;;;;4984721;28;20173;-70
2023/08/21 12:34:57;;;;;;;7.30;5.93;;;27.90;98.20;;;;;;4984895;28;20416;-70
2023/08/21 12:37:22;;;;;;;3.50;3.20;;;27.50;98.20;;;;;;4984496;28;20188;-70
2023/08/21 12:39:48;;;;;;;5.13;1.83;;;28.00;98.10;;;;;;4984177;28;20220;-70
2023/08/21 12:42:14;;;;;;;4.10;2.30;;;27.80;98.00;;;;;;4981482;28;20714;-71